Time;durP1;ratioP1;P1;durP2;ratioP2;P2;SDS_P1;SDS_P2;PMS_P1;PMS_P2;Temp;Humidity;BMP_temperature;BMP_pressure;BME280_temperature;BME280_humidity;BME280_pressure;Samples;Min_cycle;Max_cycle;Signal;HPM_P1;HPM_P2
2023/10/29 00:00:48;;;;;;;6.35;3.50;;;11.10;99.90;;;;;;5038437;28;20059;-90
2023/10/29 00:03:13;;;;;;;4.68;3.38;;;11.20;99.90;;;;;;5037370;28;20076;-92
2023/10/29 00:05:40;;;;;;;4.20;3.10;;;11.20;99.90;;;;;;5037583;28;20045;-91
2023/10/29 00:08:08;;;;;;;7.97;4.15;;;11.10;99.90;;;;;;5036556;28;20030;-90
2023/10/29 00:10:34;;;;;;;4.90;3.10;;;11.10;99.90;;;;;;5034135;28;20253;-92
2023/10/29 00:13:01;;;;;;;4.68;4.15;;;11.20;99.90;;;;;;5037324;28;20025;-90
2023/10/29 00:15:27;;;;;;;5.78;3.72;;;11.10;99.90;;;;;;5036808;28;20033;-90
2023/10/29 00:17:53;;;;;;;5.10;3.03;;;11.10;99.90;;;;;;5037944;28;20033;-91
2023/10/29 00:20:19;;;;;;;4.70;2.45;;;11.10;99.90;;;;;;5040433;28;20021;-91
2023/10/29 00:22:45;;;;;;;3.92;2.90;;;11.10;99.90;;;;;;5037374;28;20080;-90
2023/10/29 00:25:11;;;;;;;4.55;2.65;;;11.10;99.90;;;;;;5037906;28;20028;-90
2023/10/29 00:27:36;;;;;;;5.68;3.10;;;11.10;99.90;;;;;;5039038;28;20040;-92
2023/10/29 00:30:02;;;;;;;3.55;1.85;;;11.10;99.90;;;;;;5037457;28;20037;-91
2023/10/29 00:32:28;;;;;;;7.70;2.92;;;11.00;99.90;;;;;;5036719;28;20025;-91
2023/10/29 00:34:54;;;;;;;7.07;2.45;;;11.00;99.90;;;;;;5037979;28;20033;-91
2023/10/29 00:37:20;;;;;;;2.83;2.17;;;11.00;99.90;;;;;;5037214;28;20021;-90
2023/10/29 00:39:45;;;;;;;3.50;2.88;;;11.00;99.90;;;;;;5037662;28;20022;-92
2023/10/29 00:42:11;;;;;;;5.15;3.22;;;11.00;99.90;;;;;;5037371;28;20034;-92
2023/10/29 00:44:40;;;;;;;5.35;2.78;;;11.00;99.90;;;;;;5037978;28;20033;-91
2023/10/29 00:47:06;;;;;;;5.28;2.75;;;11.00;99.90;;;;;;5036060;28;20025;-90
2023/10/29 00:49:33;;;;;;;3.40;2.80;;;11.00;99.90;;;;;;5037321;28;20032;-92
2023/10/29 00:51:59;;;;;;;5.15;2.67;;;11.00;99.90;;;;;;5037658;28;20026;-92
2023/10/29 00:54:25;;;;;;;4.72;3.55;;;11.10;99.90;;;;;;5032002;28;20043;-91
2023/10/29 00:56:53;;;;;;;6.38;2.83;;;11.00;99.90;;;;;;5037145;28;20091;-91
2023/10/29 00:59:21;;;;;;;5.10;2.72;;;11.00;99.90;;;;;;5035428;28;20022;-91
2023/10/29 01:01:47;;;;;;;6.07;2.45;;;11.00;99.90;;;;;;5035711;28;20017;-91
2023/10/29 01:04:13;;;;;;;3.30;2.15;;;11.00;99.90;;;;;;5032585;28;20139;-91
2023/10/29 01:06:40;;;;;;;3.90;3.13;;;11.00;99.90;;;;;;5018767;28;20523;-91
2023/10/29 01:09:07;;;;;;;5.03;2.45;;;11.00;99.90;;;;;;5029573;28;20021;-92
2023/10/29 01:11:33;;;;;;;4.15;3.20;;;11.00;99.90;;;;;;5034364;28;20017;-91
2023/10/29 01:14:00;;;;;;;4.85;2.42;;;11.00;99.90;;;;;;5035831;28;21699;-92
2023/10/29 01:16:27;;;;;;;2.95;1.80;;;11.00;99.90;;;;;;5035798;28;20054;-91
2023/10/29 01:18:55;;;;;;;3.65;2.05;;;11.10;99.90;;;;;;5034926;28;20025;-91
2023/10/29 01:21:21;;;;;;;4.07;2.40;;;11.00;99.90;;;;;;5036868;28;20017;-92
2023/10/29 01:23:46;;;;;;;6.72;2.05;;;11.10;99.90;;;;;;5040222;28;20033;-92
2023/10/29 01:26:12;;;;;;;4.40;1.98;;;11.10;99.90;;;;;;5040174;28;20026;-91
2023/10/29 01:28:38;;;;;;;4.47;2.22;;;11.10;99.90;;;;;;5040394;28;20619;-90
2023/10/29 01:31:05;;;;;;;3.42;2.25;;;11.10;99.90;;;;;;5039161;28;20025;-91
2023/10/29 01:33:30;;;;;;;3.72;1.83;;;11.00;99.90;;;;;;5040523;28;20072;-91
2023/10/29 01:35:56;;;;;;;3.90;2.38;;;10.90;99.90;;;;;;5040821;28;20026;-91
2023/10/29 01:38:22;;;;;;;3.08;2.22;;;11.00;99.90;;;;;;5055954;28;20071;-92
2023/10/29 01:40:48;;;;;;;4.68;2.75;;;10.90;99.90;;;;;;5040723;28;20087;-92
2023/10/29 01:43:14;;;;;;;4.25;2.10;;;10.90;99.90;;;;;;5040424;28;20025;-93
2023/10/29 01:45:39;;;;;;;4.97;2.95;;;10.90;99.90;;;;;;5040341;28;20018;-91
2023/10/29 01:48:05;;;;;;;2.30;2.10;;;11.00;99.90;;;;;;5039669;28;20021;-90
2023/10/29 01:50:31;;;;;;;4.90;2.80;;;10.90;99.90;;;;;;5038613;28;20341;-91
2023/10/29 01:52:57;;;;;;;4.13;2.20;;;11.00;99.90;;;;;;5039951;28;20037;-90
2023/10/29 01:55:22;;;;;;;3.05;2.25;;;10.90;99.90;;;;;;5041229;28;20052;-91
2023/10/29 01:57:48;;;;;;;3.38;2.20;;;10.90;99.90;;;;;;5042891;28;20097;-91
2023/10/29 02:00:15;;;;;;;2.72;2.38;;;10.90;99.90;;;;;;5048985;28;20037;-91
2023/10/29 02:02:41;;;;;;;3.05;2.30;;;10.80;99.90;;;;;;5037471;28;20025;-90
2023/10/29 02:05:07;;;;;;;3.33;2.70;;;10.90;99.90;;;;;;5044542;28;20026;-91
2023/10/29 02:07:32;;;;;;;4.28;2.00;;;10.80;99.90;;;;;;5044978;28;20030;-90
2023/10/29 02:09:58;;;;;;;3.58;2.25;;;10.80;99.90;;;;;;5040112;28;20105;-91
2023/10/29 02:12:24;;;;;;;3.42;2.58;;;10.80;99.90;;;;;;5055359;28;20433;-92
2023/10/29 02:14:49;;;;;;;2.70;2.08;;;10.80;99.90;;;;;;5040677;28;20029;-91
2023/10/29 02:17:15;;;;;;;2.20;1.83;;;10.80;99.90;;;;;;5039538;28;20075;-92
2023/10/29 02:19:41;;;;;;;6.65;3.20;;;10.80;99.90;;;;;;5040102;28;20104;-90
2023/10/29 02:22:06;;;;;;;2.92;1.83;;;10.70;99.90;;;;;;5039778;28;20037;-92
2023/10/29 02:24:32;;;;;;;3.03;1.92;;;10.80;99.90;;;;;;5040303;28;20033;-92
2023/10/29 02:26:58;;;;;;;4.97;2.63;;;10.80;99.90;;;;;;5039364;28;20025;-89
2023/10/29 02:29:23;;;;;;;2.75;2.55;;;10.80;99.90;;;;;;5033300;28;20044;-91
2023/10/29 02:31:49;;;;;;;2.70;2.33;;;10.80;99.90;;;;;;5038335;28;20426;-90
2023/10/29 02:34:15;;;;;;;4.25;2.47;;;10.70;99.90;;;;;;5037300;28;20028;-91
2023/10/29 02:36:40;;;;;;;2.97;2.00;;;10.80;99.90;;;;;;5038933;28;20353;-90
2023/10/29 02:39:06;;;;;;;2.63;1.80;;;10.80;99.90;;;;;;5038357;28;20036;-91
2023/10/29 02:41:32;;;;;;;3.20;2.90;;;10.70;99.90;;;;;;5052576;28;20028;-91
2023/10/29 02:43:58;;;;;;;3.83;2.38;;;10.70;99.90;;;;;;5039135;28;20049;-92
2023/10/29 02:46:24;;;;;;;4.82;2.85;;;10.80;99.90;;;;;;5037751;28;20484;-91
2023/10/29 02:48:50;;;;;;;4.90;2.20;;;10.80;99.90;;;;;;5037994;28;20075;-91
2023/10/29 02:51:16;;;;;;;3.80;2.72;;;10.80;99.90;;;;;;5037398;28;20079;-90
2023/10/29 02:53:42;;;;;;;2.90;2.40;;;10.80;99.90;;;;;;5037200;28;20112;-91
2023/10/29 02:56:08;;;;;;;3.15;1.75;;;10.80;99.90;;;;;;5037621;28;20029;-91
2023/10/29 02:58:34;;;;;;;4.78;3.17;;;10.70;99.90;;;;;;5018030;28;20080;-90
2023/10/29 03:01:07;;;;;;;4.10;2.60;;;10.80;99.90;;;;;;5034374;28;20515;-91
2023/10/29 03:03:36;;;;;;;4.07;2.40;;;10.80;99.90;;;;;;5036561;28;20025;-91
2023/10/29 03:06:07;;;;;;;4.60;1.85;;;10.80;99.90;;;;;;5037399;28;20040;-90
2023/10/29 03:08:33;;;;;;;4.70;1.70;;;10.80;99.90;;;;;;5038266;28;20516;-91
2023/10/29 03:10:58;;;;;;;5.35;2.13;;;10.80;99.90;;;;;;5039170;28;20113;-90
2023/10/29 03:13:24;;;;;;;3.83;1.90;;;10.80;99.90;;;;;;5038641;28;20112;-90
2023/10/29 03:15:50;;;;;;;3.08;1.85;;;10.70;99.90;;;;;;5037665;28;20391;-91
2023/10/29 03:18:16;;;;;;;4.90;1.67;;;10.70;99.90;;;;;;5037346;28;20037;-92
2023/10/29 03:20:42;;;;;;;3.17;2.10;;;10.60;99.90;;;;;;5038571;28;20104;-91
2023/10/29 03:23:08;;;;;;;3.33;2.28;;;10.60;99.90;;;;;;5037584;28;20060;-91
2023/10/29 03:25:34;;;;;;;4.32;1.88;;;10.60;99.90;;;;;;5036940;28;20026;-91
2023/10/29 03:28:00;;;;;;;2.47;1.65;;;10.60;99.90;;;;;;5039091;28;20028;-91
2023/10/29 03:30:26;;;;;;;2.42;1.92;;;10.50;99.90;;;;;;5039764;28;20029;-91
2023/10/29 03:32:52;;;;;;;5.35;2.92;;;10.60;99.90;;;;;;5054643;28;20120;-91
2023/10/29 03:35:18;;;;;;;6.38;3.50;;;10.60;99.90;;;;;;5039118;28;20042;-91
2023/10/29 03:37:44;;;;;;;3.95;2.72;;;10.70;99.90;;;;;;5030239;28;20029;-90
2023/10/29 03:40:10;;;;;;;4.20;2.50;;;10.70;99.90;;;;;;5038200;28;20035;-91
2023/10/29 03:42:35;;;;;;;4.30;2.50;;;10.70;99.90;;;;;;5036761;28;20021;-90
2023/10/29 03:45:03;;;;;;;4.30;2.67;;;10.70;99.90;;;;;;5052629;28;20031;-90
2023/10/29 03:47:31;;;;;;;3.72;3.08;;;10.80;99.90;;;;;;5035505;28;20043;-90
2023/10/29 03:49:57;;;;;;;4.90;2.65;;;10.70;99.90;;;;;;5036099;28;20033;-91
2023/10/29 03:52:23;;;;;;;3.88;2.35;;;10.80;99.90;;;;;;5036954;28;20550;-90
2023/10/29 03:54:49;;;;;;;4.40;2.88;;;10.70;99.90;;;;;;5022271;28;20037;-90
2023/10/29 03:57:14;;;;;;;5.57;3.13;;;10.80;99.90;;;;;;5026745;28;20032;-90
2023/10/29 03:59:40;;;;;;;4.35;3.40;;;10.80;99.90;;;;;;5050159;28;20052;-90
2023/10/29 04:02:06;;;;;;;4.15;2.83;;;10.70;99.90;;;;;;5036394;28;20430;-91
2023/10/29 04:04:32;;;;;;;3.92;2.65;;;10.80;99.90;;;;;;5037433;28;20025;-91
2023/10/29 04:06:58;;;;;;;4.75;1.95;;;10.80;99.90;;;;;;5036400;28;20234;-91
2023/10/29 04:09:24;;;;;;;4.50;2.78;;;10.80;99.90;;;;;;5036785;28;20041;-93
2023/10/29 04:11:50;;;;;;;4.45;3.40;;;10.80;99.90;;;;;;5037649;28;20021;-91
2023/10/29 04:14:15;;;;;;;4.65;2.58;;;10.80;99.90;;;;;;5038201;28;20026;-92
2023/10/29 04:16:41;;;;;;;7.43;2.88;;;10.80;99.90;;;;;;5037709;28;20048;-91
2023/10/29 04:19:06;;;;;;;4.93;3.00;;;10.80;99.90;;;;;;5035497;28;20215;-90
2023/10/29 04:21:32;;;;;;;3.95;3.10;;;10.80;99.90;;;;;;5036472;28;20025;-91
2023/10/29 04:23:58;;;;;;;6.38;3.80;;;10.70;99.90;;;;;;5036757;28;20480;-92
2023/10/29 04:26:23;;;;;;;4.88;2.75;;;10.80;99.90;;;;;;5036927;28;20104;-92
2023/10/29 04:28:49;;;;;;;6.35;3.78;;;10.70;99.90;;;;;;5036635;28;20064;-91
2023/10/29 04:31:15;;;;;;;7.65;3.13;;;10.80;99.90;;;;;;5052477;28;20022;-91
2023/10/29 04:33:40;;;;;;;4.72;3.28;;;10.80;99.90;;;;;;5037256;28;20032;-92
2023/10/29 04:36:06;;;;;;;5.93;3.60;;;10.80;99.90;;;;;;5038216;28;20048;-91
2023/10/29 04:38:35;;;;;;;3.53;2.83;;;10.80;99.90;;;;;;5037132;28;20029;-91
2023/10/29 04:41:01;;;;;;;4.30;3.25;;;10.80;99.90;;;;;;5038760;28;20025;-91
2023/10/29 04:43:27;;;;;;;4.05;2.33;;;10.80;99.90;;;;;;5035440;28;20044;-90
2023/10/29 04:45:52;;;;;;;3.78;2.03;;;10.80;99.90;;;;;;5035724;28;20022;-91
2023/10/29 04:48:18;;;;;;;3.63;2.55;;;10.80;99.90;;;;;;5035356;28;20476;-90
2023/10/29 04:50:44;;;;;;;4.53;2.90;;;10.80;99.90;;;;;;5038293;28;20029;-89
2023/10/29 04:53:09;;;;;;;2.92;2.40;;;10.80;99.90;;;;;;5037961;28;20030;-93
2023/10/29 04:55:35;;;;;;;5.30;2.70;;;10.80;99.90;;;;;;5034862;28;20081;-91
2023/10/29 04:58:01;;;;;;;3.42;2.25;;;10.80;99.90;;;;;;5037494;28;20026;-91
2023/10/29 05:00:26;;;;;;;3.95;2.30;;;10.80;99.90;;;;;;5039142;28;20055;-91
2023/10/29 05:02:52;;;;;;;3.45;2.25;;;10.70;99.90;;;;;;5040078;28;20503;-93
2023/10/29 05:05:17;;;;;;;5.05;2.42;;;10.70;99.90;;;;;;5042246;28;20021;-91
2023/10/29 05:07:46;;;;;;;3.47;2.63;;;10.70;99.90;;;;;;5039062;28;20025;-90
2023/10/29 05:10:13;;;;;;;3.95;2.67;;;10.70;99.90;;;;;;5041717;28;20507;-93
2023/10/29 05:12:39;;;;;;;3.78;2.22;;;10.70;99.90;;;;;;5040028;28;21633;-92
2023/10/29 05:15:06;;;;;;;3.63;2.67;;;10.70;99.90;;;;;;5040224;28;20021;-90
2023/10/29 05:17:32;;;;;;;4.18;2.35;;;10.70;99.90;;;;;;5039791;28;20057;-91
2023/10/29 05:19:58;;;;;;;2.47;1.80;;;10.70;99.90;;;;;;5040516;28;20021;-92
2023/10/29 05:22:24;;;;;;;2.92;1.70;;;10.70;99.90;;;;;;5040608;28;20569;-90
2023/10/29 05:24:49;;;;;;;5.43;2.40;;;10.70;99.90;;;;;;5039904;28;20018;-92
2023/10/29 05:27:15;;;;;;;5.45;2.58;;;10.70;99.90;;;;;;5039828;28;20029;-90
2023/10/29 05:29:41;;;;;;;4.50;2.50;;;10.70;99.90;;;;;;5039136;28;20403;-91
2023/10/29 05:32:07;;;;;;;5.05;2.53;;;10.70;99.90;;;;;;5040136;28;20535;-91
2023/10/29 05:34:33;;;;;;;6.88;2.65;;;10.70;99.90;;;;;;5038767;28;20530;-91
2023/10/29 05:36:59;;;;;;;4.88;2.03;;;10.70;99.90;;;;;;5039027;28;20025;-91
2023/10/29 05:39:24;;;;;;;4.70;2.60;;;10.70;99.90;;;;;;5035719;28;20075;-91
2023/10/29 05:41:50;;;;;;;5.13;2.55;;;10.70;99.90;;;;;;5037750;28;20041;-90
2023/10/29 05:44:16;;;;;;;2.95;2.38;;;10.70;99.90;;;;;;5038188;28;20025;-91
2023/10/29 05:46:41;;;;;;;4.93;2.83;;;10.80;99.90;;;;;;5026929;28;20029;-90
2023/10/29 05:49:07;;;;;;;6.20;2.70;;;10.80;99.90;;;;;;5023989;28;20018;-90
2023/10/29 05:51:32;;;;;;;5.28;2.92;;;10.70;99.90;;;;;;5037682;28;20091;-89
2023/10/29 05:53:58;;;;;;;6.28;4.35;;;10.80;99.90;;;;;;5036999;28;20037;-93
2023/10/29 05:56:24;;;;;;;4.55;2.90;;;10.80;99.90;;;;;;5038434;28;20034;-90
2023/10/29 05:58:49;;;;;;;4.88;3.47;;;10.80;99.90;;;;;;5037547;28;20087;-90
2023/10/29 06:01:15;;;;;;;7.10;3.35;;;10.80;99.90;;;;;;5038632;28;20025;-91
2023/10/29 06:03:41;;;;;;;7.03;3.95;;;10.80;99.90;;;;;;5039183;28;20021;-91
2023/10/29 06:06:06;;;;;;;7.22;4.20;;;10.80;99.90;;;;;;5040184;28;20045;-90
2023/10/29 06:08:32;;;;;;;5.72;3.70;;;10.80;99.90;;;;;;5037921;28;20135;-91
2023/10/29 06:10:59;;;;;;;5.50;5.00;;;10.80;99.90;;;;;;5037932;28;20026;-91
2023/10/29 06:13:25;;;;;;;8.27;6.20;;;10.90;99.90;;;;;;5053914;28;20025;-91
2023/10/29 06:15:51;;;;;;;6.95;4.65;;;10.80;99.90;;;;;;5037433;28;20116;-93
2023/10/29 06:18:16;;;;;;;11.05;5.55;;;10.80;99.90;;;;;;5038275;28;20065;-92
2023/10/29 06:20:45;;;;;;;6.70;4.97;;;10.80;99.90;;;;;;5038934;28;20780;-91
2023/10/29 06:23:11;;;;;;;6.32;4.47;;;10.80;99.90;;;;;;5038403;28;20022;-90
2023/10/29 06:25:37;;;;;;;5.53;4.95;;;10.80;99.90;;;;;;5037376;28;20021;-92
2023/10/29 06:28:03;;;;;;;8.75;5.40;;;10.90;99.90;;;;;;5037242;28;20385;-93
2023/10/29 06:30:29;;;;;;;7.75;4.25;;;10.80;99.90;;;;;;5038590;28;20033;-92
2023/10/29 06:33:01;;;;;;;7.32;4.43;;;10.80;99.90;;;;;;5054337;28;20456;-92
2023/10/29 06:35:28;;;;;;;8.55;4.35;;;10.90;99.90;;;;;;5038943;28;20032;-93
2023/10/29 06:37:53;;;;;;;7.10;4.90;;;10.90;99.90;;;;;;5039870;28;20032;-93
2023/10/29 06:40:19;;;;;;;6.80;5.05;;;10.90;99.90;;;;;;5042232;28;20500;-91
2023/10/29 06:42:45;;;;;;;20.60;18.75;;;10.80;99.90;;;;;;5043111;28;20057;-91
2023/10/29 06:45:11;;;;;;;9.38;8.05;;;10.80;99.90;;;;;;5026103;28;20383;-91
2023/10/29 06:47:36;;;;;;;6.85;5.35;;;10.80;99.90;;;;;;5052418;28;20057;-90
2023/10/29 06:50:02;;;;;;;7.90;7.10;;;10.90;99.90;;;;;;5036739;28;20562;-91
2023/10/29 06:52:28;;;;;;;9.90;6.65;;;10.90;99.90;;;;;;5038139;28;20029;-92
2023/10/29 06:54:54;;;;;;;6.40;4.75;;;10.90;99.90;;;;;;5037086;28;20049;-90
2023/10/29 06:57:20;;;;;;;8.68;4.55;;;10.90;99.90;;;;;;5036883;28;20029;-90
2023/10/29 06:59:45;;;;;;;6.75;4.38;;;10.90;99.90;;;;;;5037258;28;20028;-92
2023/10/29 07:02:11;;;;;;;7.97;4.22;;;10.90;99.90;;;;;;5036571;28;20021;-92
2023/10/29 07:04:37;;;;;;;8.18;4.40;;;10.90;99.90;;;;;;5036633;28;20045;-92
2023/10/29 07:07:03;;;;;;;6.18;4.53;;;10.90;99.90;;;;;;5036798;28;20025;-91
2023/10/29 07:09:29;;;;;;;7.10;5.30;;;10.90;99.90;;;;;;5038791;28;20024;-93
2023/10/29 07:11:55;;;;;;;6.65;4.80;;;10.90;99.90;;;;;;5037781;28;20056;-91
2023/10/29 07:14:21;;;;;;;9.20;4.82;;;10.90;99.90;;;;;;5037488;28;20036;-91
2023/10/29 07:16:47;;;;;;;10.90;6.15;;;11.00;99.90;;;;;;5037775;28;20026;-93
2023/10/29 07:19:13;;;;;;;8.00;4.03;;;11.00;99.90;;;;;;5035705;28;20033;-92
2023/10/29 07:21:40;;;;;;;6.40;3.90;;;10.90;99.90;;;;;;5037300;28;21447;-91
2023/10/29 07:24:06;;;;;;;6.88;3.60;;;11.00;99.90;;;;;;5036675;28;20032;-91
2023/10/29 07:26:33;;;;;;;5.90;3.15;;;10.90;99.90;;;;;;5038323;28;20087;-90
2023/10/29 07:28:59;;;;;;;4.28;3.03;;;10.90;99.90;;;;;;5036831;28;20097;-91
2023/10/29 07:31:25;;;;;;;9.52;3.00;;;10.90;99.90;;;;;;5036796;28;20055;-90
2023/10/29 07:33:52;;;;;;;3.53;2.75;;;10.90;99.90;;;;;;5035106;28;20045;-90
2023/10/29 07:36:19;;;;;;;8.48;3.72;;;10.90;99.90;;;;;;5035773;28;20136;-91
2023/10/29 07:38:44;;;;;;;5.20;2.63;;;10.90;99.90;;;;;;5028726;28;20033;-91
2023/10/29 07:41:10;;;;;;;3.92;2.78;;;10.90;99.90;;;;;;5029051;28;20044;-90
2023/10/29 07:43:36;;;;;;;7.43;3.92;;;11.00;99.90;;;;;;5034130;28;20030;-90
2023/10/29 07:46:08;;;;;;;6.18;4.63;;;11.00;99.90;;;;;;5035147;28;20083;-90
2023/10/29 07:48:33;;;;;;;5.57;3.55;;;11.00;99.90;;;;;;5050818;28;20442;-90
2023/10/29 07:50:59;;;;;;;5.47;3.55;;;11.00;99.90;;;;;;5034947;28;20029;-91
2023/10/29 07:53:28;;;;;;;6.60;4.47;;;11.00;99.90;;;;;;5030262;28;20026;-90
2023/10/29 07:55:53;;;;;;;8.43;5.68;;;10.90;99.90;;;;;;5037356;28;20056;-91
2023/10/29 07:58:19;;;;;;;7.95;4.60;;;10.90;99.90;;;;;;5035733;28;20112;-91
2023/10/29 08:00:45;;;;;;;7.88;3.92;;;10.90;99.90;;;;;;5029617;28;20113;-92
2023/10/29 08:03:10;;;;;;;5.70;3.35;;;10.90;99.90;;;;;;5038403;28;20589;-91
2023/10/29 08:05:36;;;;;;;7.38;3.97;;;10.90;99.90;;;;;;5036339;28;20479;-91
2023/10/29 08:08:02;;;;;;;5.68;3.08;;;10.90;99.90;;;;;;5036106;28;20036;-92
2023/10/29 08:10:27;;;;;;;6.32;3.10;;;11.00;99.90;;;;;;5034344;28;20029;-93
2023/10/29 08:12:53;;;;;;;3.50;1.92;;;11.00;99.90;;;;;;5040028;28;20053;-90
2023/10/29 08:15:19;;;;;;;7.30;2.58;;;11.10;99.90;;;;;;5038309;28;20030;-91
2023/10/29 08:17:44;;;;;;;4.63;4.22;;;11.00;99.90;;;;;;5036964;28;20273;-91
2023/10/29 08:20:11;;;;;;;5.05;3.03;;;11.00;99.90;;;;;;5051809;28;20382;-92
2023/10/29 08:22:37;;;;;;;6.07;3.10;;;11.10;99.90;;;;;;5038787;28;20028;-91
2023/10/29 08:25:05;;;;;;;4.55;2.95;;;11.10;99.90;;;;;;5053686;28;20021;-91
2023/10/29 08:27:31;;;;;;;6.05;4.18;;;11.20;99.90;;;;;;5037405;28;20026;-91
2023/10/29 08:29:57;;;;;;;3.42;2.42;;;11.20;99.90;;;;;;5035232;28;20073;-91
2023/10/29 08:32:23;;;;;;;6.75;2.50;;;11.30;99.90;;;;;;5039208;28;20025;-91
2023/10/29 08:34:48;;;;;;;4.70;2.42;;;11.40;99.90;;;;;;5037078;28;20030;-93
2023/10/29 08:37:15;;;;;;;4.07;2.13;;;11.40;99.90;;;;;;5027448;28;20075;-89
2023/10/29 08:39:40;;;;;;;4.15;2.80;;;11.50;99.90;;;;;;5038587;28;20025;-90
2023/10/29 08:42:06;;;;;;;4.75;2.40;;;11.60;99.90;;;;;;5039296;28;20013;-91
2023/10/29 08:44:32;;;;;;;3.97;1.95;;;11.70;99.90;;;;;;5041064;28;20519;-90
2023/10/29 08:46:57;;;;;;;5.50;2.67;;;11.70;99.90;;;;;;5040821;28;20025;-91
2023/10/29 08:49:23;;;;;;;5.28;2.85;;;11.80;99.90;;;;;;5039658;28;20057;-91
2023/10/29 08:51:50;;;;;;;8.65;6.00;;;11.80;99.90;;;;;;5040704;28;20409;-92
2023/10/29 08:54:15;;;;;;;11.50;6.22;;;11.80;99.90;;;;;;5034490;28;20025;-90
2023/10/29 08:56:41;;;;;;;11.07;6.45;;;11.90;99.90;;;;;;5039337;28;20086;-92
2023/10/29 08:59:07;;;;;;;7.38;4.82;;;11.90;99.90;;;;;;5040771;28;20060;-91
2023/10/29 09:01:34;;;;;;;5.80;3.72;;;12.00;99.90;;;;;;5041449;28;20074;-93
2023/10/29 09:04:00;;;;;;;6.22;4.78;;;12.00;99.90;;;;;;5042092;28;20022;-92
2023/10/29 09:06:29;;;;;;;12.07;9.82;;;12.10;99.90;;;;;;5043340;28;20021;-94
2023/10/29 09:08:55;;;;;;;18.05;13.88;;;12.10;99.90;;;;;;5040294;28;20022;-92
2023/10/29 09:11:21;;;;;;;15.82;10.63;;;12.30;99.90;;;;;;5041861;28;20030;-91
2023/10/29 09:13:46;;;;;;;23.55;15.88;;;12.30;99.90;;;;;;5056386;28;20120;-91
2023/10/29 09:16:12;;;;;;;10.88;6.28;;;12.40;99.90;;;;;;5039768;28;20220;-93
2023/10/29 09:18:39;;;;;;;13.20;8.82;;;12.40;99.90;;;;;;5038924;28;20462;-93
2023/10/29 09:21:08;;;;;;;22.48;12.80;;;12.40;99.90;;;;;;5055483;28;20111;-93
2023/10/29 09:23:34;;;;;;;19.38;11.27;;;12.50;99.90;;;;;;5039268;28;20025;-94
2023/10/29 09:26:00;;;;;;;9.88;5.43;;;12.50;99.90;;;;;;5041644;28;20024;-92
2023/10/29 09:28:28;;;;;;;5.85;3.63;;;12.50;99.90;;;;;;5053337;28;20040;-93
2023/10/29 09:30:54;;;;;;;6.63;3.95;;;12.50;99.90;;;;;;5033139;28;20033;-92
2023/10/29 09:33:20;;;;;;;8.07;4.60;;;12.50;99.90;;;;;;5036807;28;20033;-94
2023/10/29 09:35:49;;;;;;;16.98;12.10;;;12.60;99.90;;;;;;5045817;28;20026;-92
2023/10/29 09:38:16;;;;;;;11.32;6.30;;;12.60;99.90;;;;;;5060719;28;20032;-93
2023/10/29 09:40:41;;;;;;;17.70;11.10;;;12.60;99.90;;;;;;5057185;28;20089;-93
2023/10/29 09:43:12;;;;;;;12.90;9.15;;;12.50;99.90;;;;;;5050565;28;20033;-92
2023/10/29 09:45:45;;;;;;;13.30;11.30;;;12.50;99.90;;;;;;5057848;28;20204;-92
2023/10/29 09:48:18;;;;;;;13.23;9.95;;;12.50;99.90;;;;;;5073497;28;20017;-95
2023/10/29 09:50:44;;;;;;;11.10;8.10;;;12.40;99.90;;;;;;5056444;28;20029;-92
2023/10/29 09:53:18;;;;;;;6.55;5.72;;;12.50;99.90;;;;;;5058050;28;20064;-93
2023/10/29 09:55:47;;;;;;;17.65;13.57;;;12.50;99.90;;;;;;5058818;28;20022;-92
2023/10/29 09:58:13;;;;;;;13.55;10.27;;;12.50;99.90;;;;;;5065216;28;20096;-92
2023/10/29 10:00:39;;;;;;;14.23;12.43;;;12.40;99.90;;;;;;5061004;28;20025;-93
2023/10/29 10:03:05;;;;;;;14.75;13.18;;;12.50;99.90;;;;;;5068983;28;20014;-92
2023/10/29 10:05:31;;;;;;;13.27;8.95;;;12.40;99.90;;;;;;5070262;28;20037;-91
2023/10/29 10:08:00;;;;;;;5.55;4.43;;;12.50;99.90;;;;;;5048546;28;20044;-91
2023/10/29 10:10:46;;;;;;;10.32;8.00;;;12.50;99.90;;;;;;5024386;28;20014;-92
2023/10/29 10:13:14;;;;;;;10.85;8.65;;;12.60;99.90;;;;;;5025066;28;20037;-92
2023/10/29 10:15:41;;;;;;;;;;;12.60;99.90;;;;;;5026323;28;20025;-92
2023/10/29 10:18:06;;;;;;;6.63;4.65;;;12.70;99.90;;;;;;5026449;28;19968;-93
2023/10/29 10:20:36;;;;;;;7.20;4.60;;;12.80;99.90;;;;;;5022507;28;20052;-92
2023/10/29 10:23:07;;;;;;;7.70;6.25;;;12.90;99.90;;;;;;5020812;28;20028;-92
2023/10/29 10:25:33;;;;;;;9.10;7.70;;;13.00;99.90;;;;;;5029495;28;20021;-92
2023/10/29 10:28:00;;;;;;;9.15;7.40;;;13.00;99.90;;;;;;5038466;23;20022;-91
2023/10/29 10:30:33;;;;;;;10.15;9.00;;;13.00;99.90;;;;;;4991229;28;20038;-90
2023/10/29 10:33:10;;;;;;;10.00;8.18;;;13.10;99.90;;;;;;4997527;28;20512;-94
2023/10/29 10:35:44;;;;;;;10.25;6.72;;;13.30;99.90;;;;;;4995175;28;20532;-94
2023/10/29 10:38:15;;;;;;;8.10;5.50;;;13.30;99.90;;;;;;4993011;28;20030;-94
2023/10/29 10:40:40;;;;;;;9.68;6.32;;;13.40;99.90;;;;;;4988478;28;20046;-91
2023/10/29 10:43:09;;;;;;;9.98;7.28;;;13.50;99.90;;;;;;5002884;28;20030;-91
2023/10/29 10:45:37;;;;;;;16.23;11.40;;;13.50;99.90;;;;;;4989641;28;20027;-91
2023/10/29 10:48:06;;;;;;;8.68;7.03;;;13.60;99.90;;;;;;4988047;28;20251;-92
2023/10/29 10:50:33;;;;;;;19.05;10.93;;;13.70;99.90;;;;;;4987879;28;20030;-92
2023/10/29 10:52:59;;;;;;;18.20;12.77;;;13.70;99.90;;;;;;4990261;28;20094;-92
2023/10/29 10:55:28;;;;;;;19.88;12.50;;;13.70;99.90;;;;;;4988720;28;20027;-92
2023/10/29 10:57:55;;;;;;;8.85;7.47;;;13.70;99.90;;;;;;4986548;28;20022;-90
2023/10/29 11:00:22;;;;;;;8.88;6.05;;;13.80;99.90;;;;;;4988387;28;20035;-90
2023/10/29 11:02:48;;;;;;;7.38;5.60;;;14.00;99.90;;;;;;4987837;28;20393;-90
2023/10/29 11:05:16;;;;;;;7.55;5.63;;;14.00;99.90;;;;;;4988756;28;20408;-89
2023/10/29 11:07:43;;;;;;;9.38;5.20;;;14.00;99.90;;;;;;4987136;28;20031;-91
2023/10/29 11:10:21;;;;;;;9.60;5.63;;;14.00;99.90;;;;;;4990122;28;20085;-88
2023/10/29 11:16:26;;;;;;;7.50;5.38;;;14.20;99.90;;;;;;5011167;28;20088;-94
2023/10/29 11:18:54;;;;;;;8.95;6.03;;;14.20;99.90;;;;;;5005022;28;20034;-95
2023/10/29 11:21:43;;;;;;;16.75;11.30;;;14.30;99.90;;;;;;5003573;28;20044;-94
2023/10/29 11:24:18;;;;;;;8.38;6.45;;;14.30;99.90;;;;;;5004840;28;20049;-94
2023/10/29 11:26:47;;;;;;;10.38;7.10;;;14.40;99.90;;;;;;5003218;28;20061;-95
2023/10/29 11:29:41;;;;;;;11.13;7.85;;;14.40;99.90;;;;;;4999439;28;20572;-96
2023/10/29 11:32:26;;;;;;;7.10;5.63;;;14.50;99.90;;;;;;5016066;28;20038;-96
2023/10/29 11:35:30;;;;;;;19.35;12.52;;;14.50;99.90;;;;;;5005276;28;20026;-94
2023/10/29 11:38:07;;;;;;;8.32;5.57;;;14.50;99.90;;;;;;5008023;28;20030;-96
2023/10/29 11:40:36;;;;;;;7.65;4.72;;;14.60;99.90;;;;;;5009701;28;20041;-95
2023/10/29 11:43:22;;;;;;;7.38;4.95;;;14.60;99.90;;;;;;5008313;28;20551;-94
2023/10/29 11:46:10;;;;;;;6.38;3.55;;;14.70;99.90;;;;;;5111716;27;20418;-95
2023/10/29 11:49:02;;;;;;;5.15;4.60;;;14.70;99.90;;;;;;5106216;27;20036;-94
2023/10/29 11:51:28;;;;;;;6.22;4.72;;;14.70;99.90;;;;;;5106572;28;20032;-92
2023/10/29 11:53:54;;;;;;;6.95;3.65;;;14.70;99.90;;;;;;5092897;28;20063;-95
2023/10/29 11:56:28;;;;;;;6.07;4.65;;;14.70;99.90;;;;;;5088409;28;20032;-93
2023/10/29 11:59:05;;;;;;;8.10;4.32;;;14.60;99.90;;;;;;5082552;28;20032;-94
2023/10/29 12:01:31;;;;;;;8.52;7.63;;;14.60;99.90;;;;;;5080164;28;20030;-94
2023/10/29 12:03:56;;;;;;;7.25;5.13;;;14.50;99.90;;;;;;5080913;28;20435;-93
2023/10/29 12:06:39;;;;;;;6.15;3.80;;;14.40;99.90;;;;;;5082055;28;20031;-95
2023/10/29 12:09:21;;;;;;;5.28;4.10;;;14.40;99.90;;;;;;5085331;28;20397;-93
2023/10/29 12:11:52;;;;;;;7.57;5.75;;;14.40;99.90;;;;;;5084741;28;20036;-93
2023/10/29 12:14:43;;;;;;;8.52;6.03;;;14.30;99.90;;;;;;5083036;28;20036;-93
2023/10/29 12:17:10;;;;;;;7.15;5.10;;;14.30;99.90;;;;;;5080702;28;20028;-93
2023/10/29 12:19:41;;;;;;;8.15;5.35;;;14.40;99.90;;;;;;5078448;28;20124;-93
2023/10/29 12:22:15;;;;;;;9.00;6.20;;;14.60;99.90;;;;;;5080307;28;20017;-94
2023/10/29 12:24:42;;;;;;;9.52;7.53;;;14.60;99.90;;;;;;5083742;28;20056;-93
2023/10/29 12:27:08;;;;;;;10.13;8.10;;;14.70;99.90;;;;;;5080135;28;20786;-94
2023/10/29 12:29:39;;;;;;;9.30;6.93;;;14.70;99.90;;;;;;5086219;28;20036;-94
2023/10/29 12:32:05;;;;;;;19.13;15.45;;;14.70;99.90;;;;;;5089995;28;20017;-94
2023/10/29 12:34:53;;;;;;;14.60;11.13;;;14.70;99.90;;;;;;5099367;28;20112;-92
2023/10/29 12:37:20;;;;;;;6.90;5.57;;;14.80;99.90;;;;;;5082425;28;20039;-96
2023/10/29 12:39:46;;;;;;;7.75;5.18;;;14.70;99.90;;;;;;5076914;28;20111;-93
2023/10/29 12:42:12;;;;;;;7.05;5.40;;;14.80;99.90;;;;;;5078884;28;20162;-92
2023/10/29 12:44:38;;;;;;;6.90;5.22;;;14.70;99.90;;;;;;5080572;28;20121;-92
2023/10/29 12:47:15;;;;;;;5.65;5.15;;;14.70;99.90;;;;;;5081200;28;20050;-94
2023/10/29 12:49:40;;;;;;;6.38;4.35;;;14.70;99.90;;;;;;5084017;28;20031;-93